sensor_id;sensor_type;location;lat;lon;timestamp;pressure;altitude;pressure_sealevel;temperature;humidity
60646;BME280;46462;32.608;-117.032;2024-02-28T00:02:08;99327.94;;;21.08;48.89
60646;BME280;46462;32.608;-117.032;2024-02-28T00:04:40;99326.88;;;20.81;49.45
60646;BME280;46462;32.608;-117.032;2024-02-28T00:07:10;99328.35;;;20.71;49.78
60646;BME280;46462;32.608;-117.032;2024-02-28T00:09:40;99333.43;;;20.63;50.17
60646;BME280;46462;32.608;-117.032;2024-02-28T00:12:11;99339.34;;;20.61;50.36
60646;BME280;46462;32.608;-117.032;2024-02-28T00:14:42;99337.74;;;20.78;50.04
60646;BME280;46462;32.608;-117.032;2024-02-28T00:17:14;99337.84;;;20.52;50.77
60646;BME280;46462;32.608;-117.032;2024-02-28T00:19:43;99335.77;;;20.72;50.36
60646;BME280;46462;32.608;-117.032;2024-02-28T00:22:14;99337.81;;;20.47;51.15
60646;BME280;46462;32.608;-117.032;2024-02-28T00:24:45;99331.23;;;20.36;51.53
60646;BME280;46462;32.608;-117.032;2024-02-28T00:27:15;99329.82;;;20.48;51.44
60646;BME280;46462;32.608;-117.032;2024-02-28T00:29:46;99331.31;;;20.35;51.85
60646;BME280;46462;32.608;-117.032;2024-02-28T00:32:17;99321.69;;;22.09;47.89
60646;BME280;46462;32.608;-117.032;2024-02-28T00:34:47;99321.02;;;23.45;44.57
60646;BME280;46462;32.608;-117.032;2024-02-28T00:37:18;99319.98;;;24.21;42.66
60646;BME280;46462;32.608;-117.032;2024-02-28T00:39:50;99327.20;;;24.58;41.69
60646;BME280;46462;32.608;-117.032;2024-02-28T00:42:19;99326.91;;;24.88;41.17
60646;BME280;46462;32.608;-117.032;2024-02-28T00:44:50;99334.51;;;25.06;41.17
60646;BME280;46462;32.608;-117.032;2024-02-28T00:47:21;99335.48;;;25.19;41.12
60646;BME280;46462;32.608;-117.032;2024-02-28T00:49:52;99341.72;;;25.33;40.99
60646;BME280;46462;32.608;-117.032;2024-02-28T00:52:22;99347.59;;;25.48;40.80
60646;BME280;46462;32.608;-117.032;2024-02-28T00:54:53;99347.75;;;25.58;40.49
60646;BME280;46462;32.608;-117.032;2024-02-28T00:57:24;99343.19;;;25.64;40.43
60646;BME280;46462;32.608;-117.032;2024-02-28T00:59:54;99346.04;;;25.68;40.44
60646;BME280;46462;32.608;-117.032;2024-02-28T01:02:25;99348.80;;;25.72;40.45
60646;BME280;46462;32.608;-117.032;2024-02-28T01:04:56;99349.73;;;25.73;40.50
60646;BME280;46462;32.608;-117.032;2024-02-28T01:07:26;99354.05;;;25.77;40.42
60646;BME280;46462;32.608;-117.032;2024-02-28T01:09:57;99353.75;;;25.78;40.69
60646;BME280;46462;32.608;-117.032;2024-02-28T01:12:28;99350.75;;;25.80;40.60
60646;BME280;46462;32.608;-117.032;2024-02-28T01:14:59;99346.95;;;25.79;40.71
60646;BME280;46462;32.608;-117.032;2024-02-28T01:17:29;99346.07;;;25.81;40.56
60646;BME280;46462;32.608;-117.032;2024-02-28T01:20:00;99339.89;;;25.80;40.62
60646;BME280;46462;32.608;-117.032;2024-02-28T01:22:31;99339.48;;;25.81;40.58
60646;BME280;46462;32.608;-117.032;2024-02-28T01:25:01;99343.73;;;25.81;40.65
60646;BME280;46462;32.608;-117.032;2024-02-28T01:27:32;99345.39;;;25.84;40.59
60646;BME280;46462;32.608;-117.032;2024-02-28T01:30:07;99347.30;;;25.81;40.67
60646;BME280;46462;32.608;-117.032;2024-02-28T01:32:37;99343.12;;;25.80;40.64
60646;BME280;46462;32.608;-117.032;2024-02-28T01:35:09;99342.47;;;25.78;40.64
60646;BME280;46462;32.608;-117.032;2024-02-28T01:37:37;99339.04;;;25.75;40.66
60646;BME280;46462;32.608;-117.032;2024-02-28T01:40:09;99339.48;;;25.70;40.80
60646;BME280;46462;32.608;-117.032;2024-02-28T01:42:39;99338.28;;;25.69;40.75
60646;BME280;46462;32.608;-117.032;2024-02-28T01:45:13;99340.41;;;25.66;40.77
60646;BME280;46462;32.608;-117.032;2024-02-28T01:47:40;99337.50;;;25.64;40.78
60646;BME280;46462;32.608;-117.032;2024-02-28T01:50:11;99334.38;;;25.62;40.76
60646;BME280;46462;32.608;-117.032;2024-02-28T01:52:41;99335.79;;;25.62;40.72
60646;BME280;46462;32.608;-117.032;2024-02-28T01:55:12;99338.89;;;25.59;40.74
60646;BME280;46462;32.608;-117.032;2024-02-28T01:57:43;99341.67;;;25.60;40.69
60646;BME280;46462;32.608;-117.032;2024-02-28T02:00:14;99342.32;;;25.57;40.66
60646;BME280;46462;32.608;-117.032;2024-02-28T02:02:44;99343.08;;;25.57;40.66
60646;BME280;46462;32.608;-117.032;2024-02-28T02:05:15;99345.30;;;25.53;40.64
60646;BME280;46462;32.608;-117.032;2024-02-28T02:07:46;99345.30;;;25.51;40.67
60646;BME280;46462;32.608;-117.032;2024-02-28T02:10:16;99345.87;;;25.48;40.67
60646;BME280;46462;32.608;-117.032;2024-02-28T02:12:47;99346.32;;;25.48;40.60
60646;BME280;46462;32.608;-117.032;2024-02-28T02:15:18;99345.50;;;25.46;40.61
60646;BME280;46462;32.608;-117.032;2024-02-28T02:17:48;99343.95;;;25.46;40.57
60646;BME280;46462;32.608;-117.032;2024-02-28T02:20:21;99342.27;;;25.43;40.55
60646;BME280;46462;32.608;-117.032;2024-02-28T02:22:50;99341.69;;;25.47;40.41
60646;BME280;46462;32.608;-117.032;2024-02-28T02:25:20;99341.11;;;25.50;40.26
60646;BME280;46462;32.608;-117.032;2024-02-28T02:27:51;99340.41;;;25.58;40.09
60646;BME280;46462;32.608;-117.032;2024-02-28T02:30:22;99347.21;;;25.57;40.12
60646;BME280;46462;32.608;-117.032;2024-02-28T02:32:52;99357.35;;;25.57;40.01
60646;BME280;46462;32.608;-117.032;2024-02-28T02:35:23;99362.45;;;25.54;40.18
60646;BME280;46462;32.608;-117.032;2024-02-28T02:37:54;99361.11;;;25.54;40.21
60646;BME280;46462;32.608;-117.032;2024-02-28T02:40:25;99363.05;;;25.53;40.22
60646;BME280;46462;32.608;-117.032;2024-02-28T02:42:55;99369.00;;;25.52;40.17
60646;BME280;46462;32.608;-117.032;2024-02-28T02:45:26;99373.94;;;25.50;40.18
60646;BME280;46462;32.608;-117.032;2024-02-28T02:47:57;99369.32;;;25.50;40.26
60646;BME280;46462;32.608;-117.032;2024-02-28T02:50:28;99361.41;;;25.47;40.19
60646;BME280;46462;32.608;-117.032;2024-02-28T02:52:58;99366.56;;;25.47;40.21
60646;BME280;46462;32.608;-117.032;2024-02-28T02:55:29;99375.10;;;25.46;40.27
60646;BME280;46462;32.608;-117.032;2024-02-28T02:57:59;99378.15;;;25.45;40.31
60646;BME280;46462;32.608;-117.032;2024-02-28T03:00:30;99377.97;;;25.44;40.25
60646;BME280;46462;32.608;-117.032;2024-02-28T03:03:01;99377.49;;;25.44;40.24
60646;BME280;46462;32.608;-117.032;2024-02-28T03:05:32;99379.99;;;25.41;40.32
60646;BME280;46462;32.608;-117.032;2024-02-28T03:08:03;99380.41;;;25.42;40.30
60646;BME280;46462;32.608;-117.032;2024-02-28T03:10:33;99380.11;;;25.40;40.34
60646;BME280;46462;32.608;-117.032;2024-02-28T03:13:04;99379.40;;;25.39;40.27
60646;BME280;46462;32.608;-117.032;2024-02-28T03:15:34;99382.28;;;25.36;40.35
60646;BME280;46462;32.608;-117.032;2024-02-28T03:18:05;99381.26;;;25.36;40.27
60646;BME280;46462;32.608;-117.032;2024-02-28T03:20:36;99378.82;;;25.34;40.30
60646;BME280;46462;32.608;-117.032;2024-02-28T03:23:07;99383.13;;;25.34;40.21
60646;BME280;46462;32.608;-117.032;2024-02-28T03:25:37;99394.88;;;25.33;40.28
60646;BME280;46462;32.608;-117.032;2024-02-28T03:28:08;99395.86;;;25.31;40.27
60646;BME280;46462;32.608;-117.032;2024-02-28T03:30:39;99395.54;;;25.29;40.38
60646;BME280;46462;32.608;-117.032;2024-02-28T03:33:09;99400.62;;;25.28;40.45
60646;BME280;46462;32.608;-117.032;2024-02-28T03:35:40;99401.97;;;25.24;40.55
60646;BME280;46462;32.608;-117.032;2024-02-28T03:38:11;99402.45;;;25.23;40.63
60646;BME280;46462;32.608;-117.032;2024-02-28T03:40:41;99399.99;;;25.20;40.69
60646;BME280;46462;32.608;-117.032;2024-02-28T03:43:12;99400.64;;;25.17;40.84
60646;BME280;46462;32.608;-117.032;2024-02-28T03:45:43;99398.29;;;25.14;40.96
60646;BME280;46462;32.608;-117.032;2024-02-28T03:48:14;99398.72;;;25.17;40.92
60646;BME280;46462;32.608;-117.032;2024-02-28T03:50:44;99400.30;;;25.13;41.01
60646;BME280;46462;32.608;-117.032;2024-02-28T03:53:15;99396.66;;;25.09;41.14
60646;BME280;46462;32.608;-117.032;2024-02-28T03:55:46;99405.32;;;25.06;41.22
60646;BME280;46462;32.608;-117.032;2024-02-28T03:58:16;99408.10;;;25.05;41.29
60646;BME280;46462;32.608;-117.032;2024-02-28T04:00:47;99412.44;;;25.04;41.31
60646;BME280;46462;32.608;-117.032;2024-02-28T04:03:18;99415.52;;;25.04;41.30
60646;BME280;46462;32.608;-117.032;2024-02-28T04:05:48;99415.37;;;25.00;41.44
60646;BME280;46462;32.608;-117.032;2024-02-28T04:08:19;99417.06;;;25.02;41.42
60646;BME280;46462;32.608;-117.032;2024-02-28T04:10:50;99415.92;;;25.00;41.40
60646;BME280;46462;32.608;-117.032;2024-02-28T04:13:21;99416.60;;;24.99;41.46
60646;BME280;46462;32.608;-117.032;2024-02-28T04:15:51;99419.54;;;24.96;41.53
60646;BME280;46462;32.608;-117.032;2024-02-28T04:18:22;99428.64;;;25.01;41.41
60646;BME280;46462;32.608;-117.032;2024-02-28T04:20:53;99426.50;;;25.03;41.30
60646;BME280;46462;32.608;-117.032;2024-02-28T04:23:23;99426.40;;;25.04;41.31
60646;BME280;46462;32.608;-117.032;2024-02-28T04:25:54;99431.53;;;25.03;41.29
60646;BME280;46462;32.608;-117.032;2024-02-28T04:28:25;99437.86;;;25.06;41.28
60646;BME280;46462;32.608;-117.032;2024-02-28T04:30:56;99439.68;;;25.03;41.27
60646;BME280;46462;32.608;-117.032;2024-02-28T04:33:26;99438.45;;;25.06;41.23
60646;BME280;46462;32.608;-117.032;2024-02-28T04:35:57;99438.60;;;25.04;41.29
60646;BME280;46462;32.608;-117.032;2024-02-28T04:38:28;99439.17;;;25.02;41.32
60646;BME280;46462;32.608;-117.032;2024-02-28T04:40:58;99438.48;;;25.00;41.39
60646;BME280;46462;32.608;-117.032;2024-02-28T04:43:29;99440.01;;;24.99;41.40
60646;BME280;46462;32.608;-117.032;2024-02-28T04:46:01;99449.02;;;24.98;41.35
60646;BME280;46462;32.608;-117.032;2024-02-28T04:48:31;99452.07;;;24.99;41.34
60646;BME280;46462;32.608;-117.032;2024-02-28T04:51:01;99457.03;;;24.93;41.51
60646;BME280;46462;32.608;-117.032;2024-02-28T04:53:32;99459.27;;;24.93;41.42
60646;BME280;46462;32.608;-117.032;2024-02-28T04:56:03;99461.13;;;24.90;41.44
60646;BME280;46462;32.608;-117.032;2024-02-28T04:58:33;99460.01;;;24.94;41.36
60646;BME280;46462;32.608;-117.032;2024-02-28T05:01:04;99462.06;;;24.95;41.39
60646;BME280;46462;32.608;-117.032;2024-02-28T05:03:35;99463.46;;;24.92;41.46
60646;BME280;46462;32.608;-117.032;2024-02-28T05:06:05;99466.27;;;24.90;41.50
60646;BME280;46462;32.608;-117.032;2024-02-28T05:08:38;99463.51;;;24.88;41.54
60646;BME280;46462;32.608;-117.032;2024-02-28T05:11:07;99462.37;;;24.85;41.67
60646;BME280;46462;32.608;-117.032;2024-02-28T05:13:37;99459.84;;;24.84;41.64
60646;BME280;46462;32.608;-117.032;2024-02-28T05:16:13;99460.44;;;24.82;41.74
60646;BME280;46462;32.608;-117.032;2024-02-28T05:18:39;99458.97;;;24.81;41.71
60646;BME280;46462;32.608;-117.032;2024-02-28T05:21:10;99463.41;;;24.85;41.62
60646;BME280;46462;32.608;-117.032;2024-02-28T05:23:40;99465.05;;;24.85;41.59
60646;BME280;46462;32.608;-117.032;2024-02-28T05:26:11;99467.20;;;24.84;41.66
60646;BME280;46462;32.608;-117.032;2024-02-28T05:28:42;99470.45;;;24.78;41.89
60646;BME280;46462;32.608;-117.032;2024-02-28T05:31:21;99470.73;;;24.76;41.93
60646;BME280;46462;32.608;-117.032;2024-02-28T05:33:43;99469.74;;;24.71;41.94
60646;BME280;46462;32.608;-117.032;2024-02-28T05:36:14;99470.14;;;24.72;41.88
60646;BME280;46462;32.608;-117.032;2024-02-28T05:38:45;99473.42;;;24.71;41.98
60646;BME280;46462;32.608;-117.032;2024-02-28T05:41:17;99478.25;;;24.67;42.07
60646;BME280;46462;32.608;-117.032;2024-02-28T05:43:46;99480.45;;;24.65;42.10
60646;BME280;46462;32.608;-117.032;2024-02-28T05:46:17;99481.73;;;24.64;42.15
60646;BME280;46462;32.608;-117.032;2024-02-28T05:48:47;99478.12;;;24.70;41.96
60646;BME280;46462;32.608;-117.032;2024-02-28T05:51:19;99482.90;;;24.65;42.17
60646;BME280;46462;32.608;-117.032;2024-02-28T05:53:49;99486.33;;;24.56;42.38
60646;BME280;46462;32.608;-117.032;2024-02-28T05:56:20;99485.12;;;24.50;42.39
60646;BME280;46462;32.608;-117.032;2024-02-28T05:58:50;99482.41;;;24.49;42.42
60646;BME280;46462;32.608;-117.032;2024-02-28T06:01:21;99481.41;;;24.50;42.36
60646;BME280;46462;32.608;-117.032;2024-02-28T06:03:52;99483.23;;;24.51;42.33
60646;BME280;46462;32.608;-117.032;2024-02-28T06:06:22;99481.98;;;24.45;42.46
60646;BME280;46462;32.608;-117.032;2024-02-28T06:08:53;99486.19;;;24.38;42.76
60646;BME280;46462;32.608;-117.032;2024-02-28T06:11:24;99484.36;;;24.30;42.78
60646;BME280;46462;32.608;-117.032;2024-02-28T06:13:54;99483.31;;;24.35;42.61
60646;BME280;46462;32.608;-117.032;2024-02-28T06:16:25;99485.42;;;24.39;42.50
60646;BME280;46462;32.608;-117.032;2024-02-28T06:18:56;99488.63;;;24.41;42.56
60646;BME280;46462;32.608;-117.032;2024-02-28T06:21:27;99486.04;;;24.40;42.50
60646;BME280;46462;32.608;-117.032;2024-02-28T06:23:57;99487.12;;;24.40;42.63
60646;BME280;46462;32.608;-117.032;2024-02-28T06:26:28;99486.53;;;24.42;42.44
60646;BME280;46462;32.608;-117.032;2024-02-28T06:28:59;99489.82;;;24.42;42.49
60646;BME280;46462;32.608;-117.032;2024-02-28T06:31:29;99489.35;;;24.40;42.44
60646;BME280;46462;32.608;-117.032;2024-02-28T06:34:00;99488.52;;;24.37;42.40
60646;BME280;46462;32.608;-117.032;2024-02-28T06:36:31;99488.83;;;24.33;42.51
60646;BME280;46462;32.608;-117.032;2024-02-28T06:39:02;99488.92;;;24.30;42.49
60646;BME280;46462;32.608;-117.032;2024-02-28T06:41:32;99486.47;;;24.33;42.44
60646;BME280;46462;32.608;-117.032;2024-02-28T06:44:03;99486.25;;;24.28;42.49
60646;BME280;46462;32.608;-117.032;2024-02-28T06:46:34;99486.06;;;24.34;42.39
60646;BME280;46462;32.608;-117.032;2024-02-28T06:49:05;99485.23;;;24.30;42.33
60646;BME280;46462;32.608;-117.032;2024-02-28T06:51:35;99481.00;;;24.32;42.34
60646;BME280;46462;32.608;-117.032;2024-02-28T06:54:06;99479.44;;;24.25;42.40
60646;BME280;46462;32.608;-117.032;2024-02-28T06:56:37;99478.67;;;24.22;42.31
60646;BME280;46462;32.608;-117.032;2024-02-28T06:59:08;99475.42;;;24.18;42.36
60646;BME280;46462;32.608;-117.032;2024-02-28T07:01:38;99480.32;;;24.22;42.30
60646;BME280;46462;32.608;-117.032;2024-02-28T07:04:09;99484.03;;;24.21;42.44
60646;BME280;46462;32.608;-117.032;2024-02-28T07:06:40;99486.73;;;24.25;42.20
60646;BME280;46462;32.608;-117.032;2024-02-28T07:09:12;99486.15;;;24.18;42.37
60646;BME280;46462;32.608;-117.032;2024-02-28T07:11:41;99488.11;;;24.23;42.23
60646;BME280;46462;32.608;-117.032;2024-02-28T07:14:12;99494.24;;;24.24;42.03
60646;BME280;46462;32.608;-117.032;2024-02-28T07:16:42;99492.24;;;24.18;42.28
60646;BME280;46462;32.608;-117.032;2024-02-28T07:19:13;99498.16;;;24.17;42.07
60646;BME280;46462;32.608;-117.032;2024-02-28T07:21:44;99498.67;;;24.13;42.19
60646;BME280;46462;32.608;-117.032;2024-02-28T07:24:15;99500.44;;;24.10;42.33
60646;BME280;46462;32.608;-117.032;2024-02-28T07:26:46;99502.29;;;24.20;42.15
60646;BME280;46462;32.608;-117.032;2024-02-28T07:29:16;99502.99;;;24.17;42.07
60646;BME280;46462;32.608;-117.032;2024-02-28T07:31:47;99502.87;;;24.20;42.04
60646;BME280;46462;32.608;-117.032;2024-02-28T07:34:18;99506.17;;;24.15;42.12
60646;BME280;46462;32.608;-117.032;2024-02-28T07:36:48;99510.16;;;24.09;42.24
60646;BME280;46462;32.608;-117.032;2024-02-28T07:39:19;99511.28;;;24.07;42.28
60646;BME280;46462;32.608;-117.032;2024-02-28T07:41:50;99510.08;;;24.02;42.40
60646;BME280;46462;32.608;-117.032;2024-02-28T07:44:21;99511.09;;;23.97;42.42
60646;BME280;46462;32.608;-117.032;2024-02-28T07:46:51;99510.31;;;23.84;42.80
60646;BME280;46462;32.608;-117.032;2024-02-28T07:49:22;99511.62;;;23.88;42.63
60646;BME280;46462;32.608;-117.032;2024-02-28T07:51:53;99509.95;;;23.96;42.44
60646;BME280;46462;32.608;-117.032;2024-02-28T07:54:23;99509.69;;;23.80;42.59
60646;BME280;46462;32.608;-117.032;2024-02-28T07:56:54;99508.58;;;23.88;42.54
60646;BME280;46462;32.608;-117.032;2024-02-28T07:59:25;99508.79;;;23.81;42.78
60646;BME280;46462;32.608;-117.032;2024-02-28T08:01:56;99510.53;;;23.81;42.78
60646;BME280;46462;32.608;-117.032;2024-02-28T08:04:26;99511.02;;;23.72;42.77
60646;BME280;46462;32.608;-117.032;2024-02-28T08:06:57;99510.57;;;23.61;43.00
60646;BME280;46462;32.608;-117.032;2024-02-28T08:09:29;99509.77;;;23.73;42.68
60646;BME280;46462;32.608;-117.032;2024-02-28T08:11:59;99513.50;;;23.81;42.49
60646;BME280;46462;32.608;-117.032;2024-02-28T08:14:29;99517.21;;;23.75;42.58
60646;BME280;46462;32.608;-117.032;2024-02-28T08:17:00;99510.43;;;23.59;42.97
60646;BME280;46462;32.608;-117.032;2024-02-28T08:19:31;99506.83;;;23.67;42.74
60646;BME280;46462;32.608;-117.032;2024-02-28T08:22:02;99509.18;;;23.74;42.47
60646;BME280;46462;32.608;-117.032;2024-02-28T08:24:32;99509.59;;;23.80;42.43
60646;BME280;46462;32.608;-117.032;2024-02-28T08:27:03;99509.22;;;23.80;42.49
60646;BME280;46462;32.608;-117.032;2024-02-28T08:29:34;99509.01;;;23.74;42.46
60646;BME280;46462;32.608;-117.032;2024-02-28T08:32:05;99509.43;;;23.77;42.57
60646;BME280;46462;32.608;-117.032;2024-02-28T08:34:35;99507.71;;;23.80;42.31
60646;BME280;46462;32.608;-117.032;2024-02-28T08:37:06;99502.46;;;23.54;42.97
60646;BME280;46462;32.608;-117.032;2024-02-28T08:39:37;99505.93;;;23.46;42.91
60646;BME280;46462;32.608;-117.032;2024-02-28T08:42:07;99507.02;;;23.54;42.84
60646;BME280;46462;32.608;-117.032;2024-02-28T08:44:38;99507.07;;;23.62;42.49
60646;BME280;46462;32.608;-117.032;2024-02-28T08:47:09;99505.92;;;23.69;42.50
60646;BME280;46462;32.608;-117.032;2024-02-28T08:49:40;99507.09;;;23.72;42.28
60646;BME280;46462;32.608;-117.032;2024-02-28T08:52:10;99503.42;;;23.57;42.53
60646;BME280;46462;32.608;-117.032;2024-02-28T08:54:41;99502.38;;;23.58;42.66
60646;BME280;46462;32.608;-117.032;2024-02-28T08:57:12;99508.24;;;23.50;42.65
60646;BME280;46462;32.608;-117.032;2024-02-28T08:59:43;99505.23;;;23.28;43.20
60646;BME280;46462;32.608;-117.032;2024-02-28T09:02:13;99501.71;;;23.20;43.33
60646;BME280;46462;32.608;-117.032;2024-02-28T09:04:44;99498.53;;;23.34;42.90
60646;BME280;46462;32.608;-117.032;2024-02-28T09:07:15;99495.97;;;23.36;42.92
60646;BME280;46462;32.608;-117.032;2024-02-28T09:09:46;99493.74;;;23.35;42.73
60646;BME280;46462;32.608;-117.032;2024-02-28T09:12:16;99496.48;;;23.44;42.73
60646;BME280;46462;32.608;-117.032;2024-02-28T09:14:47;99497.80;;;23.48;42.54
60646;BME280;46462;32.608;-117.032;2024-02-28T09:17:18;99500.21;;;23.37;42.69
60646;BME280;46462;32.608;-117.032;2024-02-28T09:19:48;99496.12;;;23.35;42.84
60646;BME280;46462;32.608;-117.032;2024-02-28T09:22:19;99492.62;;;23.36;42.76
60646;BME280;46462;32.608;-117.032;2024-02-28T09:24:50;99494.56;;;23.29;42.81
60646;BME280;46462;32.608;-117.032;2024-02-28T09:27:21;99501.27;;;23.09;43.13
60646;BME280;46462;32.608;-117.032;2024-02-28T09:29:51;99499.48;;;23.27;42.92
60646;BME280;46462;32.608;-117.032;2024-02-28T09:32:22;99492.45;;;23.11;43.26
60646;BME280;46462;32.608;-117.032;2024-02-28T09:34:53;99489.79;;;23.16;43.09
60646;BME280;46462;32.608;-117.032;2024-02-28T09:37:24;99490.41;;;23.05;43.35
60646;BME280;46462;32.608;-117.032;2024-02-28T09:39:54;99491.31;;;23.09;43.07
60646;BME280;46462;32.608;-117.032;2024-02-28T09:42:25;99493.90;;;23.03;43.43
60646;BME280;46462;32.608;-117.032;2024-02-28T09:44:56;99488.25;;;23.14;43.00
60646;BME280;46462;32.608;-117.032;2024-02-28T09:47:27;99485.58;;;22.84;43.79
60646;BME280;46462;32.608;-117.032;2024-02-28T09:49:58;99486.26;;;22.77;43.61
60646;BME280;46462;32.608;-117.032;2024-02-28T09:52:28;99489.23;;;22.88;43.51
60646;BME280;46462;32.608;-117.032;2024-02-28T09:54:59;99489.11;;;23.03;43.02
60646;BME280;46462;32.608;-117.032;2024-02-28T09:57:30;99480.21;;;23.12;42.76
60646;BME280;46462;32.608;-117.032;2024-02-28T10:00:01;99479.25;;;23.03;43.02
60646;BME280;46462;32.608;-117.032;2024-02-28T10:02:31;99480.72;;;22.88;43.53
60646;BME280;46462;32.608;-117.032;2024-02-28T10:05:02;99481.17;;;22.67;43.94
60646;BME280;46462;32.608;-117.032;2024-02-28T10:07:33;99476.75;;;22.80;43.42
60646;BME280;46462;32.608;-117.032;2024-02-28T10:10:07;99476.08;;;22.83;43.43
60646;BME280;46462;32.608;-117.032;2024-02-28T10:12:41;99476.94;;;22.97;43.22
60646;BME280;46462;32.608;-117.032;2024-02-28T10:15:08;99472.70;;;22.72;43.78
60646;BME280;46462;32.608;-117.032;2024-02-28T10:17:38;99472.35;;;22.90;43.26
60646;BME280;46462;32.608;-117.032;2024-02-28T10:20:10;99468.38;;;22.83;43.42
60646;BME280;46462;32.608;-117.032;2024-02-28T10:22:40;99469.27;;;22.66;43.81
60646;BME280;46462;32.608;-117.032;2024-02-28T10:25:11;99470.49;;;22.63;43.92
60646;BME280;46462;32.608;-117.032;2024-02-28T10:27:41;99473.30;;;22.62;43.79
60646;BME280;46462;32.608;-117.032;2024-02-28T10:30:12;99476.23;;;22.48;43.95
60646;BME280;46462;32.608;-117.032;2024-02-28T10:32:48;99474.00;;;22.53;43.96
60646;BME280;46462;32.608;-117.032;2024-02-28T10:35:15;99472.06;;;22.48;43.83
60646;BME280;46462;32.608;-117.032;2024-02-28T10:37:45;99468.80;;;22.32;44.35
60646;BME280;46462;32.608;-117.032;2024-02-28T10:40:15;99467.89;;;22.52;43.75
60646;BME280;46462;32.608;-117.032;2024-02-28T10:42:46;99465.47;;;22.53;43.49
60646;BME280;46462;32.608;-117.032;2024-02-28T10:45:18;99466.90;;;22.35;43.79
60646;BME280;46462;32.608;-117.032;2024-02-28T10:47:49;99468.01;;;22.49;43.62
60646;BME280;46462;32.608;-117.032;2024-02-28T10:50:18;99467.41;;;22.48;43.83
60646;BME280;46462;32.608;-117.032;2024-02-28T10:52:49;99468.20;;;22.73;43.34
60646;BME280;46462;32.608;-117.032;2024-02-28T10:55:21;99473.06;;;22.71;43.26
60646;BME280;46462;32.608;-117.032;2024-02-28T10:57:58;99477.05;;;22.67;42.90
60646;BME280;46462;32.608;-117.032;2024-02-28T11:00:24;99477.46;;;22.50;43.66
60646;BME280;46462;32.608;-117.032;2024-02-28T11:02:52;99471.82;;;22.31;44.12
60646;BME280;46462;32.608;-117.032;2024-02-28T11:05:23;99475.03;;;22.17;44.32
60646;BME280;46462;32.608;-117.032;2024-02-28T11:07:55;99481.71;;;22.13;44.43
60646;BME280;46462;32.608;-117.032;2024-02-28T11:10:30;99481.60;;;22.01;44.64
60646;BME280;46462;32.608;-117.032;2024-02-28T11:12:55;99476.17;;;22.14;44.46
60646;BME280;46462;32.608;-117.032;2024-02-28T11:15:26;99475.51;;;22.02;44.79
60646;BME280;46462;32.608;-117.032;2024-02-28T11:20:32;99473.03;;;22.17;43.90
60646;BME280;46462;32.608;-117.032;2024-02-28T11:22:58;99475.05;;;22.03;44.43
60646;BME280;46462;32.608;-117.032;2024-02-28T11:25:29;99475.76;;;22.14;44.04
60646;BME280;46462;32.608;-117.032;2024-02-28T11:27:59;99475.41;;;22.33;43.93
60646;BME280;46462;32.608;-117.032;2024-02-28T11:30:30;99472.25;;;21.98;44.35
60646;BME280;46462;32.608;-117.032;2024-02-28T11:33:01;99472.54;;;21.98;44.56
60646;BME280;46462;32.608;-117.032;2024-02-28T11:35:32;99467.69;;;21.87;44.80
60646;BME280;46462;32.608;-117.032;2024-02-28T11:38:02;99466.10;;;21.59;45.31
60646;BME280;46462;32.608;-117.032;2024-02-28T11:40:33;99465.09;;;21.68;45.15
60646;BME280;46462;32.608;-117.032;2024-02-28T11:43:04;99467.29;;;22.02;43.73
60646;BME280;46462;32.608;-117.032;2024-02-28T11:45:39;99469.59;;;21.94;44.23
60646;BME280;46462;32.608;-117.032;2024-02-28T11:48:07;99470.02;;;21.85;44.44
60646;BME280;46462;32.608;-117.032;2024-02-28T11:50:38;99469.68;;;21.87;44.28
60646;BME280;46462;32.608;-117.032;2024-02-28T11:53:07;99471.59;;;21.83;44.44
60646;BME280;46462;32.608;-117.032;2024-02-28T11:55:38;99469.49;;;21.72;44.84
60646;BME280;46462;32.608;-117.032;2024-02-28T11:58:09;99466.79;;;21.52;45.15
60646;BME280;46462;32.608;-117.032;2024-02-28T12:00:47;99465.38;;;21.51;44.77
60646;BME280;46462;32.608;-117.032;2024-02-28T12:03:10;99466.21;;;21.52;45.25
60646;BME280;46462;32.608;-117.032;2024-02-28T12:05:43;99464.13;;;21.50;44.88
60646;BME280;46462;32.608;-117.032;2024-02-28T12:08:12;99468.34;;;21.74;44.15
60646;BME280;46462;32.608;-117.032;2024-02-28T12:10:42;99471.48;;;21.58;44.83
60646;BME280;46462;32.608;-117.032;2024-02-28T12:13:17;99470.33;;;21.61;44.85
60646;BME280;46462;32.608;-117.032;2024-02-28T12:15:44;99470.27;;;21.57;45.02
60646;BME280;46462;32.608;-117.032;2024-02-28T12:18:15;99473.59;;;21.74;44.52
60646;BME280;46462;32.608;-117.032;2024-02-28T12:20:46;99474.23;;;21.71;43.83
60646;BME280;46462;32.608;-117.032;2024-02-28T12:23:16;99478.93;;;21.77;44.21
60646;BME280;46462;32.608;-117.032;2024-02-28T12:25:47;99481.56;;;21.68;44.71
60646;BME280;46462;32.608;-117.032;2024-02-28T12:28:18;99488.65;;;21.71;44.62
60646;BME280;46462;32.608;-117.032;2024-02-28T12:30:49;99490.86;;;21.78;44.38
60646;BME280;46462;32.608;-117.032;2024-02-28T12:33:19;99495.18;;;21.42;44.77
60646;BME280;46462;32.608;-117.032;2024-02-28T12:35:50;99497.33;;;21.49;44.49
60646;BME280;46462;32.608;-117.032;2024-02-28T12:38:21;99499.38;;;21.37;45.07
60646;BME280;46462;32.608;-117.032;2024-02-28T12:40:52;99498.01;;;21.20;45.13
60646;BME280;46462;32.608;-117.032;2024-02-28T12:43:22;99501.45;;;21.34;44.67
60646;BME280;46462;32.608;-117.032;2024-02-28T12:45:53;99499.85;;;21.54;44.73
60646;BME280;46462;32.608;-117.032;2024-02-28T12:48:24;99500.49;;;21.42;44.68
60646;BME280;46462;32.608;-117.032;2024-02-28T12:50:55;99501.57;;;21.50;44.69